Tiempo atmosférico en la estación meteorológica de Doña Mencia, Córdoba (650 m.)



Fecha
DESCASC
Temp. máxima en grados centígrados (hora)
DESCASC
Temp. mínima en grados centígrados (hora)
DESCASC
Temp. media en grados centígrados
DESCASC
Racha de viento máxima en m/sg (hora)
DESCASC
Velocidad máxima media en intervalos de 10 minutos(hora)
DESCASC
Precipitaciones diarias en mm
DESCASC
Precipitaciones de 00:00 a 06:00 en mm
DESCASC
Precipitaciones de 06:00 a 12:00 en mm
DESCASC
Precipitaciones de 12:00 a 18:00 en mm
DESCASC
Precipitaciones de 18:00 a 24:00 en mm
DESCASC
21-02-2021 18.4 (00:10) 6.4 (20:20) 12.4 13.89 (18:10) 8.33 (18:10) 18 0 0 16.5 1.5
20-02-2021 22.2 (15:40) 10.4 (05:40) 16.3 12.22 (10:40) 5.28 (10:40) 0 0 0 0 0
19-02-2021 20.6 (14:00) 10.7 (23:20) 15.7 6.94 (21:10) 4.44 (22:00) 0 0 0 0 0
18-02-2021 18.3 (16:40) 10.3 (00:00) 14.3 5.83 (13:40) 3.89 (13:50) 0 0 0 0 0
17-02-2021 22.5 (16:10) 11.6 (00:00) 17.1 4.17 (15:30) 3.33 (06:50) 0 0 0 0 0
16-02-2021 20.6 (17:10) 9.1 (00:00) 14.9 4.72 (14:20) 3.33 (22:20) 0 0 0 0 0
15-02-2021 20.6 (15:50) 9.6 (00:00) 15.1 8.89 (00:30) 6.39 (01:00) 0 0 0 0 0
14-02-2021 19.9 (17:10) 10.6 (00:00) 15.3 7.22 (07:40) 4.44 (07:40) 0 0 0 0 0
13-02-2021 19 (16:10) 8.2 (00:00) 13.6 6.11 (10:20) 3.61 (09:50) 0 0 0 0 0
12-02-2021 15.7 (15:30) 9.1 (00:00) 12.4 11.39 (09:10) 5.83 (09:10) 2.7 0.4 2.3 0 0
11-02-2021 16.1 (15:30) 10.7 (00:00) 13.4 -- (--) -- (--) 0.9 0.5 0.4 0 0
10-02-2021 12.9 (15:20) 9.1 (00:00) 11 22.5 (02:30) 11.11 (11:20) 20.8 1 2.7 10.8 6.3
09-02-2021 12.3 (11:50) 7.9 (00:00) 10.1 20 (15:50) 11.39 (17:40) 19.7 0.1 0.4 7 12.2
08-02-2021 11.1 (06:30) 7.7 (00:00) 9.4 22.5 (07:00) 12.78 (06:40) 9.1 3.7 3.4 0.2 1.8
07-02-2021 9.3 (15:10) 6.3 (00:00) 7.8 12.78 (17:00) 7.78 (17:50) 0.1 0 0.1 0 0
06-02-2021 11.6 (15:40) 6.8 (00:00) 9.2 14.72 (02:50) 7.22 (07:20) 4.2 0.8 0.6 0.7 2.1
05-02-2021 14.8 (00:40) 9.1 (00:00) 12 8.89 (17:30) 5.28 (10:40) 1.4 0 0 0.6 0.8
04-02-2021 18.1 (12:10) 8.9 (00:00) 13.5 -- (--) -- (--) 0 0 0 0 0
03-02-2021 15 (16:20) 9.3 (00:00) 12.2 -- (--) -- (--) 0 0 0 0 0
02-02-2021 15.6 (16:40) 8.6 (00:00) 12.1 -- (--) -- (--) 0 0 0 0 0
01-02-2021 14.8 (16:10) 10.3 (00:00) 12.6 11.94 (00:20) 7.22 (00:20) 0.8 0.8 0 0 0
31-01-2021 11.7 (16:30) 7 (00:00) 9.3 12.78 (02:10) 7.5 (02:10) 0.9 0 0.2 0 0.7
30-01-2021 14 (16:40) 8.9 (00:00) 11.4 13.61 (17:00) 7.5 (17:00) 1.9 0 1.1 0.8 0
29-01-2021 19.2 (15:20) 10.1 (00:00) 14.7 5.56 (23:40) 3.89 (21:00) 0 0 0 0 0
28-01-2021 25.1 (14:30) 12.1 (00:00) 18.6 8.61 (04:00) 6.67 (04:00) 0 0 0 0 0
27-01-2021 17.1 (13:20) 12.8 (00:00) 15 6.11 (21:40) 4.17 (23:59) 1.1 1.1 0 0 0
26-01-2021 14.3 (15:40) 11.1 (00:00) 12.7 8.89 (04:50) 5.56 (04:30) 0.9 0.1 0.4 0 0.4
25-01-2021 13.1 (14:50) 9.6 (00:00) 11.4 12.5 (15:20) 7.5 (08:30) 5.3 0.1 0.5 4.6 0.1

Gráficas

Temp. máximas Temp. mínimas Temp. medias Precipitaciones Rachas de viento máximas Velocidades máximas media en intervalos de 10 minutos

Datos horarios

Fecha y hora oficial Temperatura (ºC) Velocidad del viento (km/h) Dirección del viento Racha (km/h) Dirección de racha Precipitación (mm) Presión (hPa) Tendencia (hPa) Humedad (%)
2021-02-23 23:00:00 10.7 8 Este 15 Este 0 -- -- 46
2021-02-23 22:00:00 10.1 3 Norte 8 Norte 0 -- -- 49
2021-02-23 21:00:00 10.4 4 Noroeste 13 Noroeste 0 -- -- 44
2021-02-23 20:00:00 11.3 4 Este 8 Este 0 -- -- 39
2021-02-23 19:00:00 13.9 4 Nordeste 8 Nordeste 0 -- -- 33
2021-02-23 18:00:00 16 4 Nordeste 12 Norte 0 -- -- 30
2021-02-23 17:00:00 15.9 6 Norte 13 Norte 0 -- -- 31
2021-02-23 16:00:00 17 6 Nordeste 18 Noroeste 0 -- -- 31
2021-02-23 15:00:00 15.9 4 Noroeste 19 Noroeste 0 -- -- 30
2021-02-23 14:00:00 14.7 10 Norte 21 Noroeste 0 -- -- 36
2021-02-23 13:00:00 15.5 8 Sudeste 22 Sudeste 0 -- -- 30
2021-02-23 12:00:00 13.5 0 Calma 20 Este 0 -- -- 33
2021-02-23 11:00:00 11.9 3 Norte 15 Nordeste 0 -- -- 41
2021-02-23 10:00:00 10.4 5 Este 16 Sudeste 0 -- -- 47
2021-02-23 09:00:00 7.2 5 Sudeste 14 Sudeste 0 -- -- 66
2021-02-23 08:00:00 6.7 5 Sudeste 16 Sudeste 0 -- -- 75
2021-02-23 07:00:00 6.5 9 Este 17 Sudeste 0 -- -- 76
2021-02-23 06:00:00 6.1 9 Este 13 Este 0 -- -- 76
2021-02-23 05:00:00 6.3 9 Este 10 Este 0 -- -- 75
2021-02-23 04:00:00 7.3 2 Noroeste 5 Nordeste 0 -- -- 71
2021-02-23 03:00:00 7.5 0 Calma 4 Norte 0 -- -- 64
2021-02-23 02:00:00 7.8 4 Norte 8 Noroeste 0 -- -- 62
2021-02-23 01:00:00 8.1 5 Noroeste 8 Noroeste 0 -- -- 60
2021-02-23 00:00:00 8.4 3 Oeste 10 Noroeste 0 -- -- 58
2021-02-22 23:00:00 8.3 4 Noroeste 9 Noroeste 0 -- -- 57
2021-02-22 22:00:00 8.2 0 Calma 9 Noroeste 0 -- -- 55
2021-02-22 21:00:00 8.2 3 Noroeste 12 Noroeste 0 -- -- 53
2021-02-22 20:00:00 8.4 4 Noroeste 9 Norte 0 -- -- 50
2021-02-22 19:00:00 10.4 4 Oeste 21 Noroeste 0 -- -- 40
2021-02-22 18:00:00 11.6 9 Noroeste 21 Noroeste 0 -- -- 38
2021-02-22 17:00:00 11.1 12 Noroeste 27 Oeste 0 -- -- 36
2021-02-22 16:00:00 10 10 Noroeste 25 Noroeste 0 -- -- 37
2021-02-22 15:00:00 9.4 13 Noroeste 23 Noroeste 0 -- -- 39
2021-02-22 14:00:00 9.6 9 Noroeste 19 Oeste 0 -- -- 42
2021-02-22 13:00:00 9.6 11 Noroeste 21 Oeste 0 -- -- 41
2021-02-22 12:00:00 8.5 10 Noroeste 22 Oeste 0 -- -- 47
2021-02-22 11:00:00 7.6 10 Oeste 20 Noroeste 0 -- -- 60
2021-02-22 10:00:00 6.4 11 Oeste 20 Oeste 0 -- -- 68
2021-02-22 09:00:00 4.6 10 Noroeste 17 Oeste 0 -- -- 79
2021-02-22 08:00:00 4.3 9 Noroeste 20 Oeste 0 -- -- 80
2021-02-22 07:00:00 4.3 9 Noroeste 17 Noroeste 0 -- -- 81
2021-02-22 06:00:00 4.4 9 Noroeste 16 Noroeste 0 -- -- 79
2021-02-22 05:00:00 4.9 8 Noroeste 20 Oeste 0 -- -- 78
2021-02-22 04:00:00 5.3 9 Oeste 28 Oeste 0 -- -- 81
2021-02-22 03:00:00 5.7 14 Oeste 30 Oeste 0 -- -- 82
2021-02-22 02:00:00 6.2 15 Oeste 27 Noroeste 0 -- -- 80
2021-02-22 01:00:00 6.5 13 Oeste 28 Oeste 0 -- -- 79
2021-02-22 00:00:00 6.9 18 Oeste 37 Oeste 0 -- -- 77
2021-02-21 23:00:00 7.2 19 Oeste 33 Oeste 0 -- -- 76
2021-02-21 22:00:00 7 17 Oeste 33 Oeste 0 -- -- 83
2021-02-21 21:00:00 7 16 Oeste 35 Oeste 0.2 -- -- 86
2021-02-21 20:00:00 6.6 19 Oeste 41 Noroeste 0.1 -- -- 87
2021-02-21 19:00:00 7 21 Oeste 50 Oeste 1.2 -- -- 87
2021-02-21 18:00:00 7 27 Oeste 48 Oeste 0.8 -- -- 85
2021-02-21 17:00:00 8 20 Oeste 39 Oeste 1.4 -- -- 83
2021-02-21 16:00:00 8.6 11 Oeste 37 Oeste 6.1 -- -- 78
2021-02-21 15:00:00 9 19 Oeste 34 Oeste 4.8 -- -- 80
2021-02-21 14:00:00 10.3 5 Oeste 27 Oeste 3.1 -- -- 75
2021-02-21 13:00:00 12.1 12 Sur 25 Sur 0.3 -- -- 48
2021-02-21 12:00:00 12.7 12 Sur 25 Sur 0 -- -- 42
2021-02-21 11:00:00 13.6 12 Sudoeste 27 Sudoeste 0 -- -- 38
2021-02-21 10:00:00 13.1 15 Oeste 28 Oeste 0 -- -- 38
2021-02-21 09:00:00 12.8 3 Este 20 Sudeste 0 -- -- 37
2021-02-21 08:00:00 11.6 8 Nordeste 30 Nordeste 0 -- -- 39
2021-02-21 07:00:00 14.2 13 Sudoeste 36 Sudoeste 0 -- -- 28
2021-02-21 06:00:00 14.1 20 Sudoeste 34 Sudoeste 0 -- -- 31
2021-02-21 05:00:00 10.9 12 Norte 21 Norte 0 -- -- 43
2021-02-21 04:00:00 11.1 8 Noroeste 21 Noroeste 0 -- -- 40
2021-02-21 03:00:00 11.7 4 Norte 24 Sur 0 -- -- 35
2021-02-21 02:00:00 17.8 15 Sur 31 Sudoeste 0 -- -- 16
2021-02-21 01:00:00 18 17 Sur 33 Sudoeste 0 -- -- 16
2021-02-21 00:00:00 18.3 17 Sur 36 Sur 0 -- -- 17
2021-02-20 23:00:00 17.3 13 Sudeste 24 Sudeste 0 -- -- 18
2021-02-20 22:00:00 16.3 14 Sudeste 30 Sudeste 0 -- -- 18
2021-02-20 21:00:00 17.1 13 Sudeste 32 Sudeste 0 -- -- 17
2021-02-20 20:00:00 17.6 8 Sur 26 Sudoeste 0 -- -- 17
2021-02-20 19:00:00 18.4 11 Sur 37 Sur 0 -- -- 17
2021-02-20 18:00:00 19.2 12 Sur 30 Oeste 0 -- -- 16
2021-02-20 17:00:00 21 13 Oeste 36 Sudoeste 0 -- -- 19
2021-02-20 16:00:00 20.9 17 Sudoeste 38 Sudoeste 0 -- -- 15
2021-02-20 15:00:00 21.4 15 Sudoeste 36 Oeste 0 -- -- 15
2021-02-20 14:00:00 21.4 14 Sudoeste 41 Sudoeste 0 -- -- 15
2021-02-20 13:00:00 20.6 15 Sudoeste 40 Oeste 0 -- -- 16
2021-02-20 12:00:00 19.8 14 Sudoeste 36 Oeste 0 -- -- 16
2021-02-20 11:00:00 18.4 19 Sudoeste 44 Sur 0 -- -- 18
2021-02-20 10:00:00 17 19 Sur 42 Sudoeste 0 -- -- 20
2021-02-20 09:00:00 15.3 11 Sur 30 Sur 0 -- -- 23
2021-02-20 08:00:00 13.5 3 Noroeste 21 Sudoeste 0 -- -- 22
2021-02-20 07:00:00 15.4 13 Sur 28 Sur 0 -- -- 19
2021-02-20 06:00:00 11.3 5 Sur 24 Sur 0 -- -- 28
2021-02-20 05:00:00 11.3 6 Noroeste 14 Noroeste 0 -- -- 30
2021-02-20 04:00:00 12.2 0 Calma 10 Este 0 -- -- 29
2021-02-20 03:00:00 11.9 2 Sudeste 9 Este 0 -- -- 30
2021-02-20 02:00:00 12.8 7 Sur 16 Sur 0 -- -- 28
2021-02-20 01:00:00 11.2 3 Nordeste 10 Noroeste 0 -- -- 47
2021-02-20 00:00:00 12 3 Norte 8 Este 0 -- -- 43
2021-02-19 23:00:00 11.5 4 Noroeste 21 Sur 0 -- -- 48
2021-02-19 22:00:00 13.2 16 Sudeste 25 Este 0 -- -- 35
2021-02-19 21:00:00 11.6 4 Norte 18 Norte 0 -- -- 68
2021-02-19 20:00:00 12.5 10 Norte 21 Noroeste 0 -- -- 72
2021-02-19 19:00:00 15.2 10 Noroeste 16 Oeste 0 -- -- 42
2021-02-19 18:00:00 18.9 9 Noroeste 16 Oeste 0 -- -- 35
2021-02-19 17:00:00 19.3 9 Noroeste 17 Noroeste 0 -- -- 35
2021-02-19 16:00:00 20 5 Noroeste 15 Oeste 0 -- -- 31
2021-02-19 15:00:00 19.6 9 Noroeste 17 Noroeste 0 -- -- 30
2021-02-19 14:00:00 20.3 5 Oeste 16 Noroeste 0 -- -- 26
2021-02-19 13:00:00 20 5 Oeste 13 Oeste 0 -- -- 24
2021-02-19 12:00:00 18.6 5 Oeste 11 Oeste 0 -- -- 24
2021-02-19 11:00:00 16.9 3 Noroeste 6 Oeste 0 -- -- 24
2021-02-19 10:00:00 16.2 0 Calma 8 Sudeste 0 -- -- 23
2021-02-19 09:00:00 13.1 3 Este 8 Sudeste 0 -- -- 24
2021-02-19 08:00:00 12.9 3 Sudeste 8 Sudeste 0 -- -- 23
2021-02-19 07:00:00 12 3 Este 5 Este 0 -- -- 25
2021-02-19 06:00:00 13.4 2 Este 10 Sudoeste 0 -- -- 23
2021-02-19 05:00:00 12.2 5 Sudeste 7 Este 0 -- -- 26
2021-02-19 04:00:00 12.4 0 Calma 8 Nordeste 0 -- -- 28
2021-02-19 03:00:00 12.9 0 Calma 10 Este 0 -- -- 28
2021-02-19 02:00:00 12.7 3 Este 6 Este 0 -- -- 30
2021-02-19 01:00:00 13.1 0 Calma 4 Este 0 -- -- 30
2021-02-19 00:00:00 13.1 3 Este 5 Este 0 -- -- 35
2021-02-18 23:00:00 13.2 3 Norte 6 Norte 0 -- -- 38
2021-02-18 22:00:00 12.8 4 Norte 7 Norte 0 -- -- 42
2021-02-18 21:00:00 12.7 4 Norte 9 Noroeste 0 -- -- 48
2021-02-18 20:00:00 12.6 5 Noroeste 9 Noroeste 0 -- -- 52
2021-02-18 19:00:00 14.4 5 Noroeste 13 Noroeste 0 -- -- 48
2021-02-18 18:00:00 16.8 9 Oeste 14 Oeste 0 -- -- 43
2021-02-18 17:00:00 18 8 Oeste 15 Oeste 0 -- -- 39
2021-02-18 16:00:00 17.6 9 Oeste 21 Noroeste 0 -- -- 42
2021-02-18 15:00:00 17.8 12 Oeste 20 Oeste 0 -- -- 41
2021-02-18 14:00:00 16.9 14 Oeste 21 Oeste 0 -- -- 41
2021-02-18 13:00:00 16.3 11 Oeste 17 Oeste 0 -- -- 43
2021-02-18 12:00:00 15.3 8 Noroeste 17 Noroeste 0 -- -- 50
2021-02-18 11:00:00 15.3 7 Oeste 11 Noroeste 0 -- -- 48
2021-02-18 10:00:00 13.2 6 Noroeste 10 Noroeste 0 -- -- 54
2021-02-18 09:00:00 11.3 7 Norte 12 Norte 0 -- -- 57
2021-02-18 08:00:00 10.9 4 Norte 13 Noroeste 0 -- -- 54
2021-02-18 07:00:00 12.3 5 Noroeste 12 Noroeste 0 -- -- 43
2021-02-18 06:00:00 11.8 2 Norte 10 Norte 0 -- -- 46
2021-02-18 05:00:00 11.4 5 Noroeste 16 Noroeste 0 -- -- 47
2021-02-18 04:00:00 11.7 6 Noroeste 15 Noroeste 0 -- -- 43
2021-02-18 03:00:00 13 9 Noroeste 15 Noroeste 0 -- -- 39
2021-02-18 02:00:00 13.4 7 Noroeste 13 Noroeste 0 -- -- 37
2021-02-18 01:00:00 14.3 7 Noroeste 10 Norte 0 -- -- 33
2021-02-18 00:00:00 15.5 3 Noroeste 10 Noroeste 0 -- -- 25
2021-02-17 23:00:00 16.1 4 Noroeste 8 Noroeste 0 -- -- 22
2021-02-17 22:00:00 16.3 0 Calma 6 Sudeste 0 -- -- 22
2021-02-17 21:00:00 16.7 4 Este 9 Este 0 -- -- 22
2021-02-17 20:00:00 15 8 Este 10 Este 0 -- -- 33
2021-02-17 19:00:00 17.4 5 Este 8 Este 0 -- -- 26
2021-02-17 18:00:00 21.7 5 Sudeste 11 Sudeste 0 -- -- 22
2021-02-17 17:00:00 22.4 8 Sudeste 15 Este 0 -- -- 24
2021-02-17 16:00:00 22.3 7 Noroeste 15 Noroeste 0 -- -- 27
2021-02-17 15:00:00 21.8 7 Oeste 14 Noroeste 0 -- -- 26
2021-02-17 14:00:00 21.2 5 Oeste 12 Sudoeste 0 -- -- 31
2021-02-17 13:00:00 20.7 6 Oeste 10 Noroeste 0 -- -- 32
2021-02-17 12:00:00 19.3 4 Oeste 8 Oeste 0 -- -- 33
2021-02-17 11:00:00 17.6 2 Oeste 5 Oeste 0 -- -- 33
2021-02-17 10:00:00 16.1 0 Calma 10 Nordeste 0 -- -- 33
2021-02-17 09:00:00 12.5 2 Este 12 Nordeste 0 -- -- 38
2021-02-17 08:00:00 12.8 5 Nordeste 13 Este 0 -- -- 39
2021-02-17 07:00:00 12 9 Este 15 Este 0 -- -- 42
2021-02-17 06:00:00 13 0 Calma 6 Norte 0 -- -- 40
2021-02-17 05:00:00 12.1 3 Norte 7 Sudeste 0 -- -- 41
2021-02-17 04:00:00 12.6 0 Calma 8 Este 0 -- -- 38
2021-02-17 03:00:00 13.8 0 Calma 4 Sudeste 0 -- -- 37
2021-02-17 02:00:00 14.1 0 Calma 6 Sudeste 0 -- -- 36
2021-02-17 01:00:00 14.3 2 Noroeste 9 Norte 0 -- -- 36
2021-02-17 00:00:00 14.9 2 Noroeste 10 Este 0 -- -- 36
2021-02-16 23:00:00 13.8 5 Este 14 Este 0 -- -- 42
2021-02-16 22:00:00 12.2 9 Este 11 Este 0 -- -- 46
2021-02-16 21:00:00 12.7 5 Este 8 Este 0 -- -- 45
2021-02-16 20:00:00 14.6 0 Calma 5 Sudeste 0 -- -- 40
2021-02-16 19:00:00 16.2 0 Calma 7 Sur 0 -- -- 37
2021-02-16 18:00:00 19.6 0 Calma 13 Noroeste 0 -- -- 32
2021-02-16 17:00:00 20.5 6 Oeste 13 Noroeste 0 -- -- 30
2021-02-16 16:00:00 19.8 7 Noroeste 15 Noroeste 0 -- -- 31
2021-02-16 15:00:00 19.5 6 Noroeste 17 Noroeste 0 -- -- 30
2021-02-16 14:00:00 18.8 8 Noroeste 16 Oeste 0 -- -- 30
2021-02-16 13:00:00 17.6 3 Oeste 11 Oeste 0 -- -- 35
2021-02-16 12:00:00 15.5 4 Oeste 8 Oeste 0 -- -- 35
2021-02-16 11:00:00 13.7 4 Oeste 8 Oeste 0 -- -- 39
2021-02-16 10:00:00 12.3 3 Sudeste 5 Sudeste 0 -- -- 44
2021-02-16 09:00:00 9.6 0 Calma 8 Norte 0 -- -- 45
2021-02-16 08:00:00 10.1 0 Calma 5 Sudeste 0 -- -- 44
2021-02-16 07:00:00 10.6 0 Calma 5 Nordeste 0 -- -- 43
2021-02-16 06:00:00 10.3 0 Calma 8 Este 0 -- -- 44
2021-02-16 05:00:00 9.9 3 Noroeste 9 Noroeste 0 -- -- 45
2021-02-16 04:00:00 10.2 3 Noroeste 5 Noroeste 0 -- -- 42
2021-02-16 03:00:00 11 0 Calma 6 Noroeste 0 -- -- 41
2021-02-16 02:00:00 11.4 3 Norte 9 Noroeste 0 -- -- 41
2021-02-16 01:00:00 12.1 2 Este 6 Noroeste 0 -- -- 41
2021-02-16 00:00:00 12.1 2 Este 5 Nordeste 0 -- -- 40
2021-02-15 23:00:00 12.6 0 Calma 7 Norte 0 -- -- 39
2021-02-15 22:00:00 11.6 4 Norte 10 Noroeste 0 -- -- 40
2021-02-15 21:00:00 11.8 6 Noroeste 11 Norte 0 -- -- 40
2021-02-15 20:00:00 13.4 3 Nordeste 8 Norte 0 -- -- 38
2021-02-15 19:00:00 15.3 3 Norte 10 Noroeste 0 -- -- 32
2021-02-15 18:00:00 18.4 6 Oeste 15 Oeste 0 -- -- 29
2021-02-15 17:00:00 20.1 5 Oeste 13 Noroeste 0 -- -- 27
2021-02-15 16:00:00 20.5 5 Noroeste 18 Noroeste 0 -- -- 27
2021-02-15 15:00:00 19 0 Calma 13 Noroeste 0 -- -- 28
2021-02-15 14:00:00 18.5 8 Oeste 18 Noroeste 0 -- -- 30
2021-02-15 13:00:00 17.5 0 Calma 12 Noroeste 0 -- -- 32
2021-02-15 12:00:00 16.2 3 Noroeste 11 Noroeste 0 -- -- 33
2021-02-15 11:00:00 14.8 4 Noroeste 10 Este 0 -- -- 34
2021-02-15 10:00:00 14 6 Sudeste 17 Sudeste 0 -- -- 37
2021-02-15 09:00:00 10 7 Sudeste 17 Sudeste 0 -- -- 41
2021-02-15 08:00:00 10.1 2 Sudeste 20 Sudeste 0 -- -- 42
2021-02-15 07:00:00 9.9 15 Sudeste 21 Sudeste 0 -- -- 43
2021-02-15 06:00:00 10.4 2 Este 5 Sudeste 0 -- -- 44
2021-02-15 05:00:00 9.8 3 Sudeste 6 Sudeste 0 -- -- 45
2021-02-15 04:00:00 10.2 5 Este 10 Este 0 -- -- 43
2021-02-15 03:00:00 10.8 9 Este 14 Sudeste 0 -- -- 42
2021-02-15 02:00:00 10.9 8 Este 24 Sudeste 0 -- -- 42
2021-02-15 01:00:00 12.1 23 Sudeste 32 Sudeste 0 -- -- 38
2021-02-15 00:00:00 11.8 10 Este 18 Sudeste 0 -- -- 38
2021-02-14 23:00:00 12.8 7 Sudeste 19 Sudeste 0 -- -- 36
2021-02-14 22:00:00 13.1 8 Sudeste 13 Sudeste 0 -- -- 36
2021-02-14 21:00:00 12.7 8 Sudeste 10 Sudeste 0 -- -- 36
2021-02-14 20:00:00 13.4 7 Norte 11 Noroeste 0 -- -- 32
2021-02-14 19:00:00 15.4 5 Noroeste 13 Noroeste 0 -- -- 30
2021-02-14 18:00:00 19.3 5 Sudeste 14 Oeste 0 -- -- 28
2021-02-14 17:00:00 19.6 3 Noroeste 16 Oeste 0 -- -- 27
2021-02-14 16:00:00 18.8 8 Noroeste 21 Noroeste 0 -- -- 28
2021-02-14 15:00:00 18.5 12 Noroeste 22 Noroeste 0 -- -- 30
2021-02-14 14:00:00 18.8 9 Noroeste 17 Noroeste 0 -- -- 29
2021-02-14 13:00:00 19.1 3 Sudoeste 12 Sudoeste 0 -- -- 28
2021-02-14 12:00:00 17.6 3 Nordeste 20 Este 0 -- -- 32
2021-02-14 11:00:00 16.7 12 Este 19 Este 0 -- -- 32
2021-02-14 10:00:00 14.2 5 Este 21 Este 0 -- -- 33
2021-02-14 09:00:00 11.2 12 Este 20 Este 0 -- -- 36
2021-02-14 08:00:00 11.3 10 Este 26 Sudeste 0 -- -- 36
2021-02-14 07:00:00 11 13 Este 17 Este 0 -- -- 37
2021-02-14 06:00:00 10.6 8 Este 13 Este 0 -- -- 39
2021-02-14 05:00:00 11.6 11 Este 16 Este 0 -- -- 38
2021-02-14 04:00:00 11.8 12 Este 19 Este 0 -- -- 39
2021-02-14 03:00:00 11.6 10 Este 17 Este 0 -- -- 40
2021-02-14 02:00:00 11.9 11 Este 21 Este 0 -- -- 40
2021-02-14 01:00:00 11.1 14 Este 20 Sudeste 0 -- -- 41
2021-02-14 00:00:00 11.6 9 Este 13 Este 0 -- -- 40
2021-02-13 23:00:00 11.1 7 Sudeste 9 Sudeste 0 -- -- 39
2021-02-13 22:00:00 12.3 5 Este 10 Sudeste 0 -- -- 33
2021-02-13 21:00:00 11.9 8 Sudeste 12 Este 0 -- -- 34
2021-02-13 20:00:00 12.7 9 Sudeste 15 Sudeste 0 -- -- 32
2021-02-13 19:00:00 14.1 6 Sudeste 11 Sudeste 0 -- -- 29
2021-02-13 18:00:00 17.7 4 Sudeste 11 Sudeste 0 -- -- 25
2021-02-13 17:00:00 18.5 3 Este 13 Sur 0 -- -- 23
2021-02-13 16:00:00 18.6 4 Este 14 Este 0 -- -- 29
2021-02-13 15:00:00 18 8 Sudeste 15 Sudeste 0 -- -- 36
2021-02-13 14:00:00 16.6 4 Sur 15 Sudeste 0 -- -- 38
2021-02-13 13:00:00 16.3 5 Este 19 Sudeste 0 -- -- 43
2021-02-13 08:00:00 9 4 Este 19 Sudeste 0 -- -- 69
2021-02-13 07:00:00 8.4 8 Este 14 Este 0 -- -- 69
2021-02-13 06:00:00 8.3 7 Este 13 Sudeste 0 -- -- 68
2021-02-13 05:00:00 8.2 9 Sudeste 12 Sudeste 0 -- -- 68
2021-02-13 04:00:00 8.6 5 Este 11 Sudeste 0 -- -- 66
2021-02-13 03:00:00 8.9 8 Sudeste 11 Sudeste 0 -- -- 63
2021-02-13 02:00:00 9.7 4 Este 8 Sudeste 0 -- -- 60
2021-02-13 01:00:00 9.4 4 Este 7 Este 0 -- -- 59
2021-02-13 00:00:00 9.2 6 Este 8 Sudeste 0 -- -- 57
2021-02-12 23:00:00 10.4 4 Nordeste 10 Nordeste 0 -- -- 51
2021-02-12 22:00:00 10.7 3 Nordeste 9 Norte 0 -- -- 51
2021-02-12 21:00:00 11.4 3 Norte 6 Norte 0 -- -- 49
2021-02-12 20:00:00 11.6 0 Calma 4 Este 0 -- -- 48
2021-02-12 19:00:00 12.7 3 Noroeste 15 Noroeste 0 -- -- 44
2021-02-12 18:00:00 14.3 9 Noroeste 16 Oeste 0 -- -- 41
2021-02-12 17:00:00 15.2 12 Noroeste 27 Noroeste 0 -- -- 40
2021-02-12 16:00:00 14.8 10 Noroeste 21 Noroeste 0 -- -- 39
2021-02-12 15:00:00 14.3 12 Noroeste 27 Oeste 0 -- -- 39
2021-02-12 14:00:00 14.8 15 Oeste 23 Oeste 0 -- -- 37
2021-02-12 13:00:00 14 13 Oeste 31 Oeste 0 -- -- 49
2021-02-12 12:00:00 12.4 14 Noroeste 23 Oeste 0.4 -- -- 91
2021-02-12 11:00:00 11.9 15 Oeste 30 Oeste 0 -- -- 89
2021-02-12 10:00:00 11.6 17 Oeste 41 Oeste 0.4 -- -- 89
2021-02-12 09:00:00 11.5 16 Oeste 28 Oeste 0.6 -- -- 89
2021-02-12 08:00:00 11.2 14 Oeste 26 Oeste 0.9 -- -- 88
2021-02-12 07:00:00 11.1 13 Oeste 24 Oeste 0 -- -- 88
2021-02-12 06:00:00 10.9 13 Oeste 29 Oeste 0.1 -- -- 88
2021-02-12 05:00:00 11.1 13 Oeste 26 Noroeste 0.3 -- -- 88
2021-02-12 04:00:00 11.2 16 Oeste 27 Oeste 0 -- -- 88
2021-02-12 03:00:00 11.6 16 Oeste 25 Oeste 0 -- -- 88
2021-02-12 02:00:00 11.8 11 Oeste 21 Oeste 0 -- -- 85
2021-02-12 01:00:00 12.1 6 Noroeste 21 Noroeste 0 -- -- 72
2021-02-12 00:00:00 12.5 8 Noroeste 14 Norte 0 -- -- 65
2021-02-11 23:00:00 12.4 3 Noroeste 10 Noroeste 0 -- -- 71
2021-02-11 22:00:00 12.6 0 Calma 9 Noroeste 0 -- -- 78
2021-02-11 21:00:00 12.7 3 Noroeste 9 Noroeste 0 -- -- 77
2021-02-11 20:00:00 12.7 5 Noroeste 15 Oeste 0 -- -- 78
2021-02-11 19:00:00 12.7 10 Oeste 17 Oeste 0 -- -- 78
2021-02-11 18:00:00 13 8 Noroeste 15 Noroeste 0 -- -- 78
2021-02-11 17:00:00 13.6 10 Noroeste 17 Noroeste 0 -- -- 72
2021-02-11 16:00:00 15.2 4 Noroeste 11 Noroeste 0 -- -- 61
2021-02-11 15:00:00 15.7 4 Sudoeste 14 Noroeste 0 -- -- 61
2021-02-11 14:00:00 14.4 5 Oeste 14 Oeste 0 -- -- 79
2021-02-11 13:00:00 12.6 10 Noroeste 17 Noroeste 0 -- -- 89
2021-02-11 12:00:00 12.7 7 Oeste 13 Oeste 0 -- -- 89
2021-02-11 11:00:00 12.4 6 Noroeste 10 Noroeste 0 -- -- 89
2021-02-11 10:00:00 11.7 2 Noroeste 13 Norte 0 -- -- 89
2021-02-11 09:00:00 10.9 3 Noroeste 8 Noroeste 0.1 -- -- 89
2021-02-11 08:00:00 11.4 0 Calma 12 Noroeste 0.2 -- -- 89
2021-02-11 07:00:00 11.6 6 Oeste 20 Oeste 0.1 -- -- 89
2021-02-11 06:00:00 11.9 10 Noroeste 17 Oeste 0 -- -- 89
2021-02-11 05:00:00 11.9 8 Oeste 18 Oeste 0.1 -- -- 89
2021-02-11 04:00:00 12 10 Oeste 22 Oeste 0.1 -- -- 89
2021-02-11 03:00:00 12 12 Oeste 25 Oeste 0 -- -- 89
2021-02-11 02:00:00 12 14 Oeste 30 Oeste 0.1 -- -- 89
2021-02-11 01:00:00 12.1 14 Oeste 26 Oeste 0.2 -- -- 89
2021-02-11 00:00:00 12 17 Oeste 31 Oeste 0.4 -- -- 89
2021-02-10 23:00:00 12 19 Oeste 35 Oeste 0.4 -- -- 89
2021-02-10 22:00:00 12 22 Oeste 36 Oeste 0.8 -- -- 89
2021-02-10 21:00:00 12.1 19 Oeste 40 Oeste 0.3 -- -- 89
2021-02-10 20:00:00 12.3 22 Oeste 39 Oeste 1 -- -- 89
2021-02-10 19:00:00 12.5 22 Oeste 43 Oeste 3.4 -- -- 89
2021-02-10 18:00:00 12.7 21 Oeste 38 Oeste 3.4 -- -- 89
2021-02-10 17:00:00 12.8 23 Oeste 37 Noroeste 3.4 -- -- 89
2021-02-10 16:00:00 12.8 24 Oeste 47 Oeste 1.9 -- -- 89
2021-02-10 15:00:00 12.7 27 Oeste 50 Oeste 0.9 -- -- 89
2021-02-10 14:00:00 12.7 26 Oeste 48 Oeste 0.7 -- -- 89
2021-02-10 13:00:00 12.6 28 Oeste 52 Oeste 0.5 -- -- 89
2021-02-10 12:00:00 12 30 Oeste 62 Oeste 0.7 -- -- 89
2021-02-10 11:00:00 11.3 33 Oeste 60 Oeste 0.4 -- -- 89
2021-02-10 10:00:00 10.8 33 Oeste 62 Oeste 0.3 -- -- 89
2021-02-10 09:00:00 10.8 39 Oeste 71 Oeste 0.4 -- -- 89
2021-02-10 08:00:00 10.4 31 Oeste 55 Noroeste 0.9 -- -- 89
2021-02-10 07:00:00 10.1 31 Oeste 60 Oeste 0 -- -- 89
2021-02-10 06:00:00 9.6 31 Oeste 55 Oeste 0 -- -- 89
2021-02-10 05:00:00 9.5 32 Oeste 52 Oeste 0 -- -- 89
2021-02-10 04:00:00 9.4 28 Oeste 53 Sudoeste 0 -- -- 89
2021-02-10 03:00:00 9.2 29 Oeste 81 Oeste 0 -- -- 89
2021-02-10 02:00:00 9.5 32 Oeste 58 Oeste 0.5 -- -- 89
2021-02-10 01:00:00 9.8 31 Oeste 61 Oeste 0.5 -- -- 89
2021-02-10 00:00:00 9.7 35 Oeste 64 Oeste 0.1 -- -- 89
2021-02-09 23:00:00 9.7 28 Oeste 51 Oeste 1.4 -- -- 89
2021-02-09 22:00:00 10.3 27 Oeste 51 Oeste 5.9 -- -- 89
2021-02-09 21:00:00 10.4 33 Oeste 59 Oeste 1.7 -- -- 89
2021-02-09 20:00:00 10.3 31 Oeste 53 Oeste 1.5 -- -- 89
2021-02-09 19:00:00 10.1 30 Oeste 60 Oeste 1.6 -- -- 89
2021-02-09 18:00:00 10.3 34 Oeste 64 Noroeste 1.6 -- -- 89
2021-02-09 17:00:00 10.3 39 Oeste 68 Oeste 1.9 -- -- 89
2021-02-09 16:00:00 10.1 39 Oeste 72 Noroeste 2 -- -- 86
2021-02-09 15:00:00 11.4 30 Oeste 64 Oeste 0 -- -- 88
2021-02-09 14:00:00 10.1 32 Oeste 59 Oeste 0.9 -- -- 89
2021-02-09 13:00:00 10.5 33 Oeste 59 Oeste 0.6 -- -- 85
2021-02-09 12:00:00 11.5 29 Oeste 66 Oeste 0 -- -- 52
2021-02-09 11:00:00 11.4 31 Oeste 67 Sudoeste 0 -- -- 55
2021-02-09 10:00:00 9.5 29 Oeste 55 Sudoeste 0 -- -- 71
2021-02-09 09:00:00 9.3 29 Oeste 55 Oeste 0 -- -- 66
2021-02-09 08:00:00 8.7 32 Oeste 57 Oeste 0.1 -- -- 75
2021-02-09 07:00:00 8 23 Oeste 44 Oeste 0.3 -- -- 88
2021-02-09 06:00:00 8.5 22 Oeste 41 Oeste 0 -- -- 86
2021-02-09 05:00:00 8.2 18 Oeste 37 Oeste 0.1 -- -- 85
2021-02-09 04:00:00 8.4 19 Oeste 34 Oeste 0 -- -- 86
2021-02-09 03:00:00 8.4 19 Oeste 36 Oeste 0 -- -- 85
2021-02-09 02:00:00 8.5 22 Oeste 38 Noroeste 0 -- -- 86
2021-02-09 01:00:00 8.9 23 Oeste 47 Oeste 0 -- -- 83
2021-02-09 00:00:00 8.8 24 Oeste 42 Oeste 0 -- -- 86
2021-02-08 23:00:00 9 26 Oeste 44 Oeste 0 -- -- 88
2021-02-08 22:00:00 9 26 Oeste 44 Oeste 0 -- -- 88
2021-02-08 21:00:00 9.3 26 Oeste 50 Oeste 0.5 -- -- 88
2021-02-08 20:00:00 9.3 27 Oeste 50 Oeste 1.3 -- -- 87
2021-02-08 19:00:00 9.7 22 Oeste 41 Noroeste 0 -- -- 80
2021-02-08 18:00:00 10.3 21 Oeste 44 Oeste 0 -- -- 65
2021-02-08 17:00:00 10.3 25 Oeste 44 Oeste 0 -- -- 70
2021-02-08 16:00:00 10.1 27 Oeste 62 Sudoeste 0.1 -- -- 58
2021-02-08 15:00:00 10.3 31 Oeste 48 Oeste 0.1 -- -- 68
2021-02-08 14:00:00 9.9 22 Oeste 40 Oeste 0 -- -- 65
2021-02-08 13:00:00 9.2 25 Oeste 37 Oeste 0 -- -- 83
2021-02-08 12:00:00 8.4 17 Oeste 33 Oeste 0 -- -- 89
2021-02-08 11:00:00 8 18 Oeste 30 Oeste 0 -- -- 89
2021-02-08 10:00:00 8.1 17 Oeste 33 Oeste 0 -- -- 89
2021-02-08 09:00:00 8.4 20 Oeste 43 Oeste 0 -- -- 89
2021-02-08 08:00:00 9 27 Oeste 77 Oeste 2 -- -- 89
2021-02-08 07:00:00 10.6 41 Oeste 81 Sudoeste 1.4 -- -- 80
2021-02-08 06:00:00 10.2 33 Oeste 66 Oeste 0.8 -- -- 75
2021-02-08 05:00:00 9.4 24 Sudoeste 58 Oeste 2.5 -- -- 78
2021-02-08 04:00:00 9.3 31 Oeste 56 Oeste 0.2 -- -- 79
2021-02-08 03:00:00 8.8 24 Oeste 46 Oeste 0 -- -- 83
2021-02-08 02:00:00 8.4 28 Oeste 49 Oeste 0.2 -- -- 83
2021-02-08 01:00:00 7.7 23 Oeste 49 Oeste 0 -- -- 84
2021-02-08 00:00:00 7.8 24 Oeste 41 Oeste 0 -- -- 75
2021-02-07 23:00:00 7.5 23 Oeste 41 Oeste 0 -- -- 73
2021-02-07 22:00:00 7.1 21 Oeste 41 Oeste 0 -- -- 74
2021-02-07 21:00:00 7.1 22 Oeste 36 Oeste 0 -- -- 68
2021-02-07 20:00:00 7 20 Oeste 41 Oeste 0 -- -- 61
2021-02-07 19:00:00 7.3 26 Oeste 44 Oeste 0 -- -- 60
2021-02-07 18:00:00 7.9 25 Oeste 45 Oeste 0 -- -- 63
2021-02-07 17:00:00 8.8 27 Oeste 46 Oeste 0 -- -- 62
2021-02-07 16:00:00 8.7 26 Oeste 39 Oeste 0 -- -- 74
2021-02-07 15:00:00 8.5 20 Oeste 40 Oeste 0 -- -- 83
2021-02-07 14:00:00 8.5 19 Oeste 28 Oeste 0 -- -- 88
2021-02-07 13:00:00 7.9 15 Oeste 27 Oeste 0 -- -- 90
2021-02-07 12:00:00 7.6 13 Oeste 27 Oeste 0 -- -- 90
2021-02-07 11:00:00 7.1 12 Oeste 25 Oeste 0 -- -- 90
2021-02-07 10:00:00 6.8 11 Oeste 23 Oeste 0 -- -- 89
2021-02-07 09:00:00 6.6 10 Oeste 19 Oeste 0 -- -- 90
2021-02-07 08:00:00 6.5 7 Noroeste 18 Oeste 0 -- -- 90
2021-02-07 07:00:00 6.3 15 Oeste 24 Noroeste 0.1 -- -- 89
2021-02-07 06:00:00 6.6 12 Oeste 23 Oeste 0 -- -- 89
2021-02-07 05:00:00 6.5 13 Oeste 27 Oeste 0 -- -- 88
2021-02-07 04:00:00 6.6 14 Oeste 25 Noroeste 0 -- -- 88
2021-02-07 03:00:00 6.6 12 Oeste 30 Oeste 0 -- -- 88
2021-02-07 02:00:00 6.9 13 Oeste 26 Oeste 0 -- -- 88
2021-02-07 01:00:00 7.1 14 Oeste 35 Oeste 0 -- -- 88
2021-02-07 00:00:00 7.4 18 Oeste 31 Oeste 0 -- -- 87
2021-02-06 23:00:00 7.5 19 Oeste 33 Oeste 0 -- -- 86
2021-02-06 22:00:00 7.8 18 Oeste 35 Oeste 2.1 -- -- 86
2021-02-06 21:00:00 8.3 20 Oeste 36 Noroeste 0 -- -- 83
2021-02-06 20:00:00 8.5 17 Oeste 34 Oeste 0 -- -- 84
2021-02-06 19:00:00 8.6 18 Oeste 36 Oeste 0 -- -- 84
2021-02-06 18:00:00 8.8 17 Oeste 33 Oeste 0.2 -- -- 84
2021-02-06 17:00:00 9.3 15 Oeste 33 Oeste 0.5 -- -- 83
2021-02-06 16:00:00 10.6 20 Oeste 35 Oeste 0 -- -- 57
2021-02-06 15:00:00 11.1 16 Oeste 29 Oeste 0 -- -- 58
2021-02-06 14:00:00 10.9 14 Oeste 35 Oeste 0 -- -- 65
2021-02-06 13:00:00 9.8 18 Oeste 33 Oeste 0 -- -- 66
2021-02-06 12:00:00 9.3 19 Oeste 34 Sudoeste 0 -- -- 66
2021-02-06 11:00:00 8.5 21 Oeste 41 Oeste 0.1 -- -- 71
2021-02-06 10:00:00 8.7 22 Oeste 44 Oeste 0 -- -- 65
2021-02-06 09:00:00 8.4 18 Oeste 37 Sudoeste 0 -- -- 65
2021-02-06 08:00:00 7.7 24 Oeste 46 Sudoeste 0 -- -- 80
2021-02-06 07:00:00 7.5 20 Oeste 39 Oeste 0.5 -- -- 87
2021-02-06 06:00:00 8.7 21 Oeste 47 Oeste 0.8 -- -- 81
2021-02-06 05:00:00 10 23 Sudoeste 48 Sudoeste 0 -- -- 62
2021-02-06 04:00:00 10.2 18 Sudoeste 48 Oeste 0 -- -- 58
2021-02-06 03:00:00 10.3 23 Sudoeste 53 Sudoeste 0 -- -- 56
2021-02-06 02:00:00 10.3 13 Sur 40 Sur 0 -- -- 55
2021-02-06 01:00:00 10.3 19 Sur 33 Sur 0 -- -- 54
2021-02-06 00:00:00 10.4 16 Sur 29 Sudoeste 0 -- -- 56
2021-02-05 23:00:00 10.6 12 Sudoeste 28 Sudoeste 0 -- -- 57
2021-02-05 22:00:00 9.8 6 Sudoeste 19 Noroeste 0 -- -- 73
2021-02-05 21:00:00 10.1 9 Oeste 17 Oeste 0.5 -- -- 73
2021-02-05 20:00:00 9.6 2 Noroeste 11 Noroeste 0.2 -- -- 78
2021-02-05 19:00:00 9.3 0 Calma 16 Noroeste 0.1 -- -- 77
2021-02-05 18:00:00 9.3 11 Oeste 32 Oeste 0.6 -- -- 75
2021-02-05 17:00:00 12.6 11 Oeste 24 Oeste 0 -- -- 67
2021-02-05 16:00:00 13.5 14 Oeste 20 Oeste 0 -- -- 62
2021-02-05 15:00:00 13.5 13 Noroeste 22 Noroeste 0 -- -- 63
2021-02-05 14:00:00 13 12 Noroeste 24 Noroeste 0 -- -- 68
2021-02-05 13:00:00 11.9 15 Noroeste 25 Noroeste 0 -- -- 71
2021-02-05 12:00:00 11.5 14 Noroeste 26 Oeste 0 -- -- 74
2021-02-05 11:00:00 11.1 17 Oeste 31 Noroeste 0 -- -- 75
2021-02-05 10:00:00 11.5 8 Noroeste 14 Noroeste 0 -- -- 58
2021-02-05 09:00:00 11.5 7 Noroeste 11 Noroeste 0 -- -- 55
2021-02-05 08:00:00 12.5 4 Noroeste 6 Noroeste 0 -- -- 43
2021-02-05 07:00:00 13 0 Calma 4 Norte 0 -- -- 42
2021-02-05 06:00:00 12.4 0 Calma 8 Noroeste 0 -- -- 49
2021-02-05 05:00:00 12.4 4 Nordeste 16 Noroeste 0 -- -- 51
2021-02-05 04:00:00 12.9 7 Norte 17 Nordeste 0 -- -- 44
2021-02-05 03:00:00 14.5 11 Nordeste 16 Nordeste 0 -- -- 38
2021-02-05 02:00:00 14.1 13 Este 18 Este 0 -- -- 42
2021-02-05 01:00:00 14.2 4 Este 12 Este 0 -- -- 38
2021-02-05 00:00:00 12.7 4 Nordeste 17 Este 0 -- -- 59
2021-02-04 23:00:00 12 17 Este 35 Este 0 -- -- 70
2021-02-04 22:00:00 12 30 Este 37 Este 0 -- -- 75
2021-02-04 21:00:00 11.8 12 Este 37 Sudeste 0 -- -- 74
2021-02-04 20:00:00 12.1 10 Sudeste 23 Sudeste 0 -- -- 72
2021-02-04 19:00:00 12.3 5 Nordeste 10 Noroeste 0 -- -- 65
2021-02-04 18:00:00 14.1 4 Norte 12 Noroeste 0 -- -- 57
2021-02-04 17:00:00 14.6 8 Noroeste 19 Noroeste 0 -- -- 54
2021-02-04 16:00:00 16.3 12 Oeste 23 Oeste 0 -- -- 53
2021-02-04 15:00:00 15.1 10 Oeste 22 Oeste 0 -- -- 53
2021-02-04 14:00:00 15.4 12 Oeste 21 Oeste 0 -- -- 51
2021-02-04 13:00:00 14.9 14 Noroeste 37 Sudoeste 0 -- -- 45
2021-02-04 12:00:00 17.9 20 Sudoeste 50 Sur 0 -- -- 25
2021-02-04 11:00:00 14.4 7 Sudoeste 30 Sudoeste 0 -- -- 43
2021-02-04 10:00:00 10 0 Calma 4 Noroeste 0 -- -- 83
2021-02-04 09:00:00 8.9 0 Calma 15 Nordeste 0 -- -- 81
2021-02-04 08:00:00 9.5 3 Nordeste 19 Nordeste 0 -- -- 79
2021-02-04 07:00:00 9.9 16 Nordeste 36 Este 0 -- -- 79
2021-02-04 06:00:00 9.5 0 Calma 10 Este 0 -- -- 80
2021-02-04 05:00:00 9.3 0 Calma 6 Este 0 -- -- 78
2021-02-04 04:00:00 9.7 0 Calma -- -- 0 -- -- 76
2021-02-04 03:00:00 10 0 Calma -- -- 0 -- -- 76
2021-02-04 02:00:00 10.6 0 Calma -- -- 0 -- -- 72
2021-02-04 01:00:00 10.9 0 Calma -- -- 0 -- -- 71
2021-02-04 00:00:00 10.7 0 Calma -- -- 0 -- -- 70
2021-02-03 23:00:00 10.6 0 Calma -- -- 0 -- -- 70
2021-02-03 22:00:00 10.3 0 Calma -- -- 0 -- -- 73
2021-02-03 21:00:00 10.4 0 Calma -- -- 0 -- -- 71
2021-02-03 20:00:00 10.9 0 Calma -- -- 0 -- -- 67
2021-02-03 19:00:00 11.6 0 Calma -- -- 0 -- -- 62
2021-02-03 18:00:00 13 0 Calma -- -- 0 -- -- 56
2021-02-03 17:00:00 14 0 Calma 10 Noroeste 0 -- -- 51
2021-02-03 16:00:00 14.5 0 Calma 14 Oeste 0 -- -- 49
2021-02-03 15:00:00 14.1 0 Calma 9 Noroeste 0 -- -- 50
2021-02-03 14:00:00 13.7 0 Calma 5 Noroeste 0 -- -- 51
2021-02-03 13:00:00 12.4 2 Noroeste 13 Oeste 0 -- -- 57
2021-02-03 12:00:00 11.5 0 Calma 14 Oeste 0 -- -- 61
2021-02-03 11:00:00 10.9 4 Oeste 13 Sudoeste 0 -- -- 65
2021-02-03 10:00:00 10.9 2 Oeste 9 Sudoeste 0 -- -- 66
2021-02-03 09:00:00 9.6 0 Calma -- -- 0 -- -- 76
2021-02-03 08:00:00 9.5 0 Calma -- -- 0 -- -- 77
2021-02-03 07:00:00 9.8 0 Calma -- -- 0 -- -- 75
2021-02-03 06:00:00 9.9 0 Calma -- -- 0 -- -- 75
2021-02-03 05:00:00 9.8 0 Calma -- -- 0 -- -- 75
2021-02-03 04:00:00 10 0 Calma -- -- 0 -- -- 76
2021-02-03 03:00:00 9.6 0 Calma -- -- 0 -- -- 76
2021-02-03 02:00:00 9.8 0 Calma -- -- 0 -- -- 74
2021-02-03 01:00:00 9.9 0 Calma -- -- 0 -- -- 74
2021-02-03 00:00:00 9.7 0 Calma 5 Norte 0 -- -- 76
2021-02-02 23:00:00 9.7 0 Calma -- -- 0 -- -- 79
2021-02-02 22:00:00 10.3 0 Calma -- -- 0 -- -- 80
2021-02-02 21:00:00 10 0 Calma -- -- 0 -- -- 75
2021-02-02 20:00:00 11.2 0 Calma -- -- 0 -- -- 71
2021-02-02 19:00:00 11.5 0 Calma 5 Oeste 0 -- -- 68
2021-02-02 18:00:00 13.2 3 Noroeste 11 Noroeste 0 -- -- 61
2021-02-02 17:00:00 14.4 0 Calma 4 Sur 0 -- -- 54
2021-02-02 16:00:00 14.2 0 Calma 14 Oeste 0 -- -- 57
2021-02-02 15:00:00 14.2 7 Noroeste 18 Noroeste 0 -- -- 57
2021-02-02 14:00:00 14.1 10 Noroeste 20 Oeste 0 -- -- 60
2021-02-02 13:00:00 13.4 4 Oeste 15 Noroeste 0 -- -- 60
2021-02-02 12:00:00 11.3 0 Calma 12 Noroeste 0 -- -- 73
2021-02-02 11:00:00 11.3 3 Norte 12 Noroeste 0 -- -- 71
2021-02-02 10:00:00 10.3 0 Calma 4 Oeste 0 -- -- 84
2021-02-02 09:00:00 9.6 0 Calma 8 Noroeste 0 -- -- 86
2021-02-02 08:00:00 9.3 3 Noroeste 6 Noroeste 0 -- -- 86
2021-02-02 07:00:00 8.9 0 Calma 8 Norte 0 -- -- 87
2021-02-02 06:00:00 8.8 0 Calma 8 Noroeste 0 -- -- 86
2021-02-02 05:00:00 9.2 5 Noroeste 11 Noroeste 0 -- -- 87
2021-02-02 04:00:00 9.1 6 Noroeste 15 Noroeste 0 -- -- 87
2021-02-02 03:00:00 9.5 5 Noroeste 9 Noroeste 0 -- -- 86
2021-02-02 02:00:00 9.6 0 Calma 11 Noroeste 0 -- -- 85
2021-02-02 01:00:00 10.2 6 Oeste 11 Oeste 0 -- -- 83
2021-02-02 00:00:00 10.4 4 Oeste 17 Oeste 0 -- -- 81
2021-02-01 23:00:00 10.7 7 Noroeste 18 Noroeste 0 -- -- 81
2021-02-01 22:00:00 10.6 5 Noroeste 23 Oeste 0 -- -- 82
2021-02-01 21:00:00 10.8 8 Oeste 21 Oeste 0 -- -- 81
2021-02-01 20:00:00 11.4 6 Oeste 22 Oeste 0 -- -- 79
2021-02-01 19:00:00 11.7 8 Noroeste 21 Noroeste 0 -- -- 71
2021-02-01 18:00:00 12.8 13 Oeste 28 Oeste 0 -- -- 62
2021-02-01 17:00:00 13.5 15 Noroeste 33 Oeste 0 -- -- 56
2021-02-01 16:00:00 14.4 17 Oeste 29 Oeste 0 -- -- 52
2021-02-01 15:00:00 13.6 17 Oeste 29 Noroeste 0 -- -- 55
2021-02-01 14:00:00 13.6 12 Noroeste 24 Oeste 0 -- -- 61
2021-02-01 13:00:00 12.3 13 Noroeste 22 Oeste 0 -- -- 88
2021-02-01 12:00:00 10.6 12 Oeste 19 Oeste 0 -- -- 89
2021-02-01 11:00:00 10.9 13 Oeste 21 Oeste 0 -- -- 89
2021-02-01 10:00:00 11 11 Oeste 24 Oeste 0 -- -- 89
2021-02-01 09:00:00 10.6 10 Noroeste 21 Oeste 0 -- -- 89
2021-02-01 08:00:00 11 12 Oeste 20 Oeste 0 -- -- 89
2021-02-01 07:00:00 11 10 Oeste 19 Noroeste 0 -- -- 89
2021-02-01 06:00:00 11.4 14 Oeste 26 Oeste 0.3 -- -- 89
2021-02-01 05:00:00 11.7 13 Oeste 28 Oeste 0.2 -- -- 89
2021-02-01 04:00:00 11.6 17 Oeste 26 Oeste 0.1 -- -- 89
2021-02-01 03:00:00 11.6 18 Oeste 36 Oeste 0.1 -- -- 89
2021-02-01 02:00:00 11.4 22 Oeste 42 Oeste 0 -- -- 89
2021-02-01 01:00:00 11.4 23 Oeste 43 Oeste 0.1 -- -- 89
2021-02-01 00:00:00 11.1 23 Oeste 40 Oeste 0.3 -- -- 88
2021-01-31 23:00:00 10.9 21 Oeste 42 Oeste 0.3 -- -- 88
2021-01-31 22:00:00 11 25 Oeste 44 Oeste 0 -- -- 87
2021-01-31 21:00:00 10.9 26 Oeste 43 Oeste 0.1 -- -- 86
2021-01-31 20:00:00 11.5 21 Oeste 37 Oeste 0 -- -- 79
2021-01-31 19:00:00 11.6 19 Oeste 45 Oeste 0 -- -- 74
2021-01-31 18:00:00 11.5 22 Oeste 38 Oeste 0 -- -- 74
2021-01-31 17:00:00 11.6 21 Oeste 40 Oeste 0 -- -- 74
2021-01-31 16:00:00 11.1 22 Oeste 41 Oeste 0 -- -- 71
2021-01-31 15:00:00 11.1 23 Oeste 46 Oeste 0 -- -- 73
2021-01-31 14:00:00 9.9 25 Oeste 43 Oeste 0 -- -- 81
2021-01-31 13:00:00 9.3 26 Oeste 40 Oeste 0 -- -- 86
2021-01-31 12:00:00 8.7 21 Oeste 36 Oeste 0.1 -- -- 88
2021-01-31 11:00:00 8.4 22 Oeste 36 Oeste 0 -- -- 88
2021-01-31 10:00:00 7.6 18 Oeste 31 Oeste 0.1 -- -- 88
2021-01-31 09:00:00 7.3 15 Oeste 32 Oeste 0 -- -- 88
2021-01-31 08:00:00 7.2 18 Oeste 34 Oeste 0 -- -- 87
2021-01-31 07:00:00 7.1 19 Oeste 34 Oeste 0 -- -- 86
2021-01-31 06:00:00 7.2 21 Oeste 30 Noroeste 0 -- -- 83
2021-01-31 05:00:00 7.7 14 Oeste 30 Oeste 0 -- -- 73
2021-01-31 04:00:00 7.7 21 Oeste 39 Oeste 0 -- -- 70
2021-01-31 03:00:00 8 25 Oeste 46 Oeste 0 -- -- 63
2021-01-31 02:00:00 8.5 23 Oeste 44 Oeste 0 -- -- 58
2021-01-31 01:00:00 9 25 Oeste 41 Sudoeste 0 -- -- 53
2021-01-31 00:00:00 8.9 23 Oeste 38 Oeste 0 -- -- 55
2021-01-30 23:00:00 9.1 13 Noroeste 28 Oeste 0 -- -- 57
2021-01-30 22:00:00 10.2 20 Oeste 33 Oeste 0 -- -- 51
2021-01-30 21:00:00 10.7 17 Oeste 27 Oeste 0 -- -- 48
2021-01-30 20:00:00 10.9 14 Oeste 25 Oeste 0 -- -- 47
2021-01-30 19:00:00 11.2 16 Oeste 31 Noroeste 0 -- -- 43
2021-01-30 18:00:00 12.2 22 Noroeste 39 Noroeste 0 -- -- 40
2021-01-30 17:00:00 12.5 27 Oeste 49 Oeste 0 -- -- 43
2021-01-30 16:00:00 12.4 19 Oeste 43 Oeste 0 -- -- 50
2021-01-30 15:00:00 12.5 17 Noroeste 44 Oeste 0 -- -- 57
2021-01-30 14:00:00 12.1 25 Oeste 44 Noroeste 0.1 -- -- 89
2021-01-30 13:00:00 11.5 23 Oeste 40 Oeste 0.7 -- -- 89
2021-01-30 12:00:00 11.3 20 Oeste 36 Oeste 0.7 -- -- 88
2021-01-30 11:00:00 10.7 21 Oeste 47 Sudoeste 0.1 -- -- 86
2021-01-30 10:00:00 10.1 25 Oeste 45 Oeste 0 -- -- 84
2021-01-30 09:00:00 9.9 22 Oeste 41 Noroeste 0 -- -- 89
2021-01-30 08:00:00 9.4 24 Oeste 45 Oeste 0.2 -- -- 89
2021-01-30 07:00:00 9.5 22 Oeste 42 Oeste 0.1 -- -- 89
2021-01-30 06:00:00 9.4 23 Oeste 39 Oeste 0 -- -- 89
2021-01-30 05:00:00 9.5 21 Oeste 33 Oeste 0 -- -- 89
2021-01-30 04:00:00 9.4 10 Noroeste 31 Noroeste 0 -- -- 89
2021-01-30 03:00:00 9.7 13 Noroeste 24 Oeste 0 -- -- 89
2021-01-30 02:00:00 10.4 11 Oeste 23 Noroeste 0 -- -- 89
2021-01-30 01:00:00 10.6 12 Noroeste 24 Oeste 0 -- -- 89
2021-01-30 00:00:00 10.6 11 Oeste 20 Oeste 0 -- -- 89
2021-01-29 23:00:00 10.3 9 Oeste 19 Oeste 0 -- -- 89
2021-01-29 22:00:00 10.1 9 Noroeste 19 Noroeste 0 -- -- 89
2021-01-29 21:00:00 10.3 14 Noroeste 19 Noroeste 0 -- -- 89
2021-01-29 20:00:00 10.7 11 Noroeste 19 Norte 0 -- -- 88
2021-01-29 19:00:00 11 9 Noroeste 18 Noroeste 0 -- -- 88
2021-01-29 18:00:00 12.2 7 Noroeste 17 Oeste 0 -- -- 86
2021-01-29 17:00:00 15.4 12 Oeste 18 Oeste 0 -- -- 64
2021-01-29 16:00:00 18.5 12 Oeste 18 Oeste 0 -- -- 43
2021-01-29 15:00:00 18.7 10 Oeste 17 Noroeste 0 -- -- 44
2021-01-29 14:00:00 18 13 Oeste 17 Oeste 0 -- -- 45
2021-01-29 13:00:00 16.6 10 Noroeste 15 Noroeste 0 -- -- 55
2021-01-29 12:00:00 14.7 10 Noroeste 17 Noroeste 0 -- -- 59
2021-01-29 11:00:00 14.4 10 Noroeste 17 Oeste 0 -- -- 53
2021-01-29 10:00:00 15.2 5 Noroeste 11 Norte 0 -- -- 46
2021-01-29 09:00:00 15.1 3 Noroeste 7 Noroeste 0 -- -- 40
2021-01-29 08:00:00 16 2 Norte 6 Noroeste 0 -- -- 37
2021-01-29 07:00:00 16.6 2 Este 10 Este 0 -- -- 38
2021-01-29 06:00:00 14.3 3 Nordeste 8 Noroeste 0 -- -- 52
2021-01-29 05:00:00 15.7 3 Nordeste 4 Nordeste 0 -- -- 41
2021-01-29 04:00:00 15.9 0 Calma 6 Este 0 -- -- 42
2021-01-29 03:00:00 13.9 4 Este 13 Norte 0 -- -- 67
2021-01-29 02:00:00 14.6 9 Norte 12 Noroeste 0 -- -- 63
2021-01-29 01:00:00 14.8 8 Norte 13 Norte 0 -- -- 54
2021-01-29 00:00:00 16.1 4 Norte 8 Noroeste 0 -- -- 46
2021-01-28 23:00:00 17.7 0 Calma 3 Nordeste 0 -- -- 41
2021-01-28 22:00:00 18.1 0 Calma 2 Este 0 -- -- 42
2021-01-28 21:00:00 18.7 0 Calma 4 Sudeste 0 -- -- 42
2021-01-28 20:00:00 18.2 0 Calma 3 Este 0 -- -- 46
2021-01-28 19:00:00 18.4 2 Noroeste 3 Noroeste 0 -- -- 45
2021-01-28 18:00:00 21.4 0 Calma 10 Oeste 0 -- -- 38
2021-01-28 17:00:00 23 5 Oeste 12 Oeste 0 -- -- 29
2021-01-28 16:00:00 23.3 4 Noroeste 12 Este 0 -- -- 28
2021-01-28 15:00:00 24 3 Sudeste 15 Este 0 -- -- 25
2021-01-28 14:00:00 24.5 7 Sudeste 13 Sudeste 0 -- -- 21
2021-01-28 13:00:00 21.5 0 Calma 10 Sudeste 0 -- -- 37
2021-01-28 12:00:00 23.2 5 Sudeste 11 Este 0 -- -- 24
2021-01-28 11:00:00 21.7 5 Este 13 Sudeste 0 -- -- 26
2021-01-28 10:00:00 18.6 9 Este 15 Este 0 -- -- 29
2021-01-28 09:00:00 16.2 13 Este 15 Este 0 -- -- 29
2021-01-28 08:00:00 15.6 13 Este 17 Este 0 -- -- 31
2021-01-28 07:00:00 14.9 11 Este 20 Este 0 -- -- 35
2021-01-28 06:00:00 13.1 18 Este 26 Este 0 -- -- 67
2021-01-28 05:00:00 12.5 14 Este 30 Este 0 -- -- 73
2021-01-28 04:00:00 13.1 24 Este 31 Este 0 -- -- 68
2021-01-28 03:00:00 12.2 14 Este 21 Este 0 -- -- 75
2021-01-28 02:00:00 12.5 0 Calma 23 Este 0 -- -- 77
2021-01-28 01:00:00 13.2 17 Este 23 Este 0 -- -- 76
2021-01-28 00:00:00 13 15 Este 22 Este 0 -- -- 80
2021-01-27 23:00:00 13.2 6 Este 18 Este 0 -- -- 78
2021-01-27 22:00:00 13.7 4 Este 22 Sudeste 0 -- -- 78
2021-01-27 21:00:00 12.8 0 Calma 11 Sudeste 0 -- -- 81
2021-01-27 20:00:00 13.6 0 Calma 11 Sudeste 0 -- -- 80
2021-01-27 19:00:00 14.2 0 Calma 13 Este 0 -- -- 77
2021-01-27 18:00:00 15.1 4 Nordeste 15 Nordeste 0 -- -- 73
2021-01-27 17:00:00 15.5 4 Nordeste 14 Este 0 -- -- 71
2021-01-27 16:00:00 15.7 4 Nordeste 12 Nordeste 0 -- -- 70
2021-01-27 15:00:00 15.9 3 Nordeste 10 Norte 0 -- -- 69
2021-01-27 14:00:00 16.3 3 Nordeste 14 Sudeste 0 -- -- 68
2021-01-27 13:00:00 16.1 0 Calma 12 Sudeste 0 -- -- 72
2021-01-27 12:00:00 15.4 8 Sudeste 13 Sudeste 0 -- -- 89
2021-01-27 11:00:00 14.2 5 Sudeste 9 Sudeste 0 -- -- 90
2021-01-27 10:00:00 13.7 0 Calma -- -- 0 -- -- 90
2021-01-27 09:00:00 13.5 0 Calma 4 Este 0 -- -- 90
2021-01-27 08:00:00 13.4 0 Calma 4 Noroeste 0 -- -- 90
2021-01-27 07:00:00 13.5 0 Calma 6 Noroeste 0 -- -- 90
2021-01-27 06:00:00 13.6 0 Calma 6 Noroeste 0 -- -- 90
2021-01-27 05:00:00 13.6 0 Calma 6 Noroeste 0.7 -- -- 90
2021-01-27 04:00:00 13.5 0 Calma 7 Noroeste 0.1 -- -- 90
2021-01-27 03:00:00 13.6 3 Noroeste 10 Oeste 0 -- -- 90
2021-01-27 02:00:00 13.5 4 Noroeste 11 Noroeste 0.1 -- -- 90
2021-01-27 01:00:00 13.2 7 Noroeste 11 Noroeste 0.2 -- -- 90
2021-01-27 00:00:00 13.2 7 Noroeste 12 Norte 0.1 -- -- 90
2021-01-26 23:00:00 13.3 5 Noroeste 14 Oeste 0.1 -- -- 90
2021-01-26 22:00:00 13.4 6 Noroeste 10 Noroeste 0 -- -- 89
2021-01-26 21:00:00 13.5 0 Calma 11 Noroeste 0.2 -- -- 89
2021-01-26 20:00:00 13.3 6 Oeste 17 Oeste 0 -- -- 88
2021-01-26 19:00:00 13.4 3 Noroeste 16 Oeste 0 -- -- 85
2021-01-26 18:00:00 13.7 7 Oeste 14 Sudoeste 0 -- -- 81
2021-01-26 17:00:00 14 9 Oeste 19 Noroeste 0 -- -- 80
2021-01-26 16:00:00 14.1 12 Noroeste 18 Oeste 0 -- -- 75
2021-01-26 15:00:00 13.8 11 Noroeste 19 Noroeste 0 -- -- 89
2021-01-26 14:00:00 12.9 15 Oeste 22 Noroeste 0 -- -- 96
2021-01-26 13:00:00 12.5 9 Noroeste 21 Noroeste 0 -- -- 96
2021-01-26 12:00:00 12.1 10 Noroeste 35 Sudoeste 0.1 -- -- 96
2021-01-26 11:00:00 11.8 5 Oeste 20 Oeste 0 -- -- 99
2021-01-26 10:00:00 11.5 8 Oeste 18 Oeste 0 -- -- 99
2021-01-26 09:00:00 11.4 8 Oeste 18 Oeste 0 -- -- 99
2021-01-26 08:00:00 11.2 11 Oeste 21 Oeste 0.1 -- -- 99
2021-01-26 07:00:00 11.1 12 Oeste 23 Oeste 0.2 -- -- 99
2021-01-26 06:00:00 11.2 15 Oeste 26 Oeste 0 -- -- 99
2021-01-26 05:00:00 11.3 19 Oeste 32 Oeste 0 -- -- 99
2021-01-26 04:00:00 11.5 17 Oeste 32 Oeste 0.1 -- -- 99
2021-01-26 03:00:00 11.7 18 Oeste 32 Oeste 0 -- -- 99
2021-01-26 02:00:00 11.8 15 Oeste 29 Oeste 0 -- -- 99
2021-01-26 01:00:00 11.8 18 Oeste 30 Oeste 0 -- -- 99
2021-01-26 00:00:00 11.9 22 Oeste 36 Oeste 0 -- -- 99
2021-01-25 23:00:00 12.1 23 Oeste 37 Oeste 0 -- -- 99
2021-01-25 22:00:00 12.2 21 Oeste 37 Oeste 0 -- -- 99
2021-01-25 21:00:00 12.4 21 Oeste 42 Oeste 0 -- -- 99
2021-01-25 20:00:00 12.5 23 Oeste 36 Oeste 0.1 -- -- 99
2021-01-25 19:00:00 12.6 19 Oeste 35 Oeste 0 -- -- 99
2021-01-25 18:00:00 12.8 24 Oeste 41 Oeste 0 -- -- 99
2021-01-25 17:00:00 13 23 Oeste 44 Oeste 0 -- -- 99
2021-01-25 16:00:00 13 25 Oeste 45 Oeste 1.2 -- -- 99
2021-01-25 15:00:00 13 26 Oeste 44 Oeste 2 -- -- 99
2021-01-25 14:00:00 12.8 22 Oeste 42 Oeste 0.9 -- -- 99
2021-01-25 13:00:00 12.3 23 Oeste 40 Oeste 0.5 -- -- 99
2021-01-25 12:00:00 11.5 23 Oeste 37 Oeste 0 -- -- 99
2021-01-25 11:00:00 11 21 Oeste 36 Oeste 0.2 -- -- 99
2021-01-25 10:00:00 10.8 22 Oeste 39 Oeste 0.1 -- -- 99
2021-01-25 09:00:00 10.3 24 Oeste 42 Oeste 0.1 -- -- 99
2021-01-25 08:00:00 10.3 19 Oeste 33 Oeste 0 -- -- 99
2021-01-25 07:00:00 10.5 20 Oeste 31 Oeste 0.1 -- -- 99
2021-01-25 06:00:00 9.9 18 Oeste 30 Oeste 0 -- -- 99
2021-01-25 05:00:00 9.8 17 Oeste 27 Oeste 0.1 -- -- 99
2021-01-25 04:00:00 9.8 14 Oeste 26 Oeste 0 -- -- 99
2021-01-25 03:00:00 9.7 9 Noroeste 21 Oeste 0 -- -- 99
2021-01-25 02:00:00 9.9 11 Oeste 22 Oeste 0 -- -- 99
2021-01-25 01:00:00 9.7 8 Oeste 19 Oeste 0 -- -- 99
2021-01-25 00:00:00 10 12 Oeste 21 Oeste 0 -- -- 99